sensor_id;sensor_type;location;lat;lon;timestamp;P1;durP1;ratioP1;P2;durP2;ratioP2
6626;SDS011;3349;49.830;8.748;2022-12-20T00:00:52;58.87;;;34.77;;
6626;SDS011;3349;49.830;8.748;2022-12-20T00:03:20;57.10;;;34.93;;
6626;SDS011;3349;49.830;8.748;2022-12-20T00:05:47;61.33;;;36.83;;
6626;SDS011;3349;49.830;8.748;2022-12-20T00:08:13;54.87;;;33.63;;
6626;SDS011;3349;49.830;8.748;2022-12-20T00:10:41;59.40;;;35.77;;
6626;SDS011;3349;49.830;8.748;2022-12-20T00:13:09;61.87;;;35.37;;
6626;SDS011;3349;49.830;8.748;2022-12-20T00:15:37;67.43;;;39.00;;
6626;SDS011;3349;49.830;8.748;2022-12-20T00:18:04;62.93;;;37.73;;
6626;SDS011;3349;49.830;8.748;2022-12-20T00:20:32;61.70;;;36.27;;
6626;SDS011;3349;49.830;8.748;2022-12-20T00:22:59;62.17;;;36.43;;
6626;SDS011;3349;49.830;8.748;2022-12-20T00:25:26;67.40;;;37.00;;
6626;SDS011;3349;49.830;8.748;2022-12-20T00:27:52;65.90;;;38.60;;
6626;SDS011;3349;49.830;8.748;2022-12-20T00:30:19;58.37;;;35.83;;
6626;SDS011;3349;49.830;8.748;2022-12-20T00:32:46;66.77;;;37.10;;
6626;SDS011;3349;49.830;8.748;2022-12-20T00:35:14;58.53;;;35.33;;
6626;SDS011;3349;49.830;8.748;2022-12-20T00:37:42;53.30;;;31.73;;
6626;SDS011;3349;49.830;8.748;2022-12-20T00:40:09;51.83;;;33.20;;
6626;SDS011;3349;49.830;8.748;2022-12-20T00:42:35;54.43;;;31.83;;
6626;SDS011;3349;49.830;8.748;2022-12-20T00:45:02;59.37;;;33.93;;
6626;SDS011;3349;49.830;8.748;2022-12-20T00:47:29;56.07;;;34.23;;
6626;SDS011;3349;49.830;8.748;2022-12-20T00:49:57;54.53;;;34.07;;
6626;SDS011;3349;49.830;8.748;2022-12-20T00:52:24;63.97;;;36.33;;
6626;SDS011;3349;49.830;8.748;2022-12-20T00:54:52;57.87;;;34.87;;
6626;SDS011;3349;49.830;8.748;2022-12-20T00:57:18;56.47;;;32.80;;
6626;SDS011;3349;49.830;8.748;2022-12-20T00:59:45;54.90;;;32.53;;
6626;SDS011;3349;49.830;8.748;2022-12-20T01:02:12;57.43;;;34.10;;
6626;SDS011;3349;49.830;8.748;2022-12-20T01:04:39;59.73;;;33.13;;
6626;SDS011;3349;49.830;8.748;2022-12-20T01:07:05;47.27;;;28.93;;
6626;SDS011;3349;49.830;8.748;2022-12-20T01:09:32;49.43;;;29.87;;
6626;SDS011;3349;49.830;8.748;2022-12-20T01:12:00;53.17;;;30.43;;
6626;SDS011;3349;49.830;8.748;2022-12-20T01:14:27;50.57;;;30.00;;
6626;SDS011;3349;49.830;8.748;2022-12-20T01:16:54;47.37;;;29.00;;
6626;SDS011;3349;49.830;8.748;2022-12-20T01:19:21;50.27;;;29.90;;
6626;SDS011;3349;49.830;8.748;2022-12-20T01:21:47;48.87;;;31.70;;
6626;SDS011;3349;49.830;8.748;2022-12-20T01:24:15;50.77;;;30.60;;
6626;SDS011;3349;49.830;8.748;2022-12-20T01:26:43;57.17;;;32.43;;
6626;SDS011;3349;49.830;8.748;2022-12-20T01:29:12;65.27;;;34.60;;
6626;SDS011;3349;49.830;8.748;2022-12-20T01:31:39;55.60;;;33.63;;
6626;SDS011;3349;49.830;8.748;2022-12-20T01:34:06;68.43;;;36.90;;
6626;SDS011;3349;49.830;8.748;2022-12-20T01:36:34;74.67;;;38.60;;
6626;SDS011;3349;49.830;8.748;2022-12-20T01:39:03;77.97;;;38.50;;
6626;SDS011;3349;49.830;8.748;2022-12-20T01:41:32;79.53;;;39.93;;
6626;SDS011;3349;49.830;8.748;2022-12-20T01:44:00;73.30;;;38.37;;
6626;SDS011;3349;49.830;8.748;2022-12-20T01:46:30;73.37;;;38.53;;
6626;SDS011;3349;49.830;8.748;2022-12-20T01:48:59;74.30;;;37.73;;
6626;SDS011;3349;49.830;8.748;2022-12-20T01:51:31;68.20;;;35.80;;
6626;SDS011;3349;49.830;8.748;2022-12-20T01:54:02;63.57;;;35.43;;
6626;SDS011;3349;49.830;8.748;2022-12-20T01:56:32;59.87;;;33.80;;
6626;SDS011;3349;49.830;8.748;2022-12-20T01:58:59;58.33;;;33.67;;
6626;SDS011;3349;49.830;8.748;2022-12-20T02:01:27;64.40;;;35.00;;
6626;SDS011;3349;49.830;8.748;2022-12-20T02:03:55;67.70;;;34.73;;
6626;SDS011;3349;49.830;8.748;2022-12-20T02:06:23;57.43;;;33.93;;
6626;SDS011;3349;49.830;8.748;2022-12-20T02:08:52;60.13;;;32.97;;
6626;SDS011;3349;49.830;8.748;2022-12-20T02:11:26;65.17;;;35.37;;
6626;SDS011;3349;49.830;8.748;2022-12-20T02:14:11;60.00;;;33.27;;
6626;SDS011;3349;49.830;8.748;2022-12-20T02:16:44;51.30;;;30.90;;
6626;SDS011;3349;49.830;8.748;2022-12-20T02:19:24;51.07;;;30.57;;
6626;SDS011;3349;49.830;8.748;2022-12-20T02:22:13;48.97;;;29.33;;
6626;SDS011;3349;49.830;8.748;2022-12-20T02:24:53;46.30;;;28.10;;
6626;SDS011;3349;49.830;8.748;2022-12-20T02:27:47;46.43;;;26.37;;
6626;SDS011;3349;49.830;8.748;2022-12-20T02:30:26;43.13;;;26.77;;
6626;SDS011;3349;49.830;8.748;2022-12-20T02:32:58;42.50;;;26.63;;
6626;SDS011;3349;49.830;8.748;2022-12-20T02:35:29;41.03;;;26.63;;
6626;SDS011;3349;49.830;8.748;2022-12-20T02:37:58;44.27;;;26.43;;
6626;SDS011;3349;49.830;8.748;2022-12-20T02:40:29;45.20;;;27.00;;
6626;SDS011;3349;49.830;8.748;2022-12-20T02:43:00;48.17;;;29.00;;
6626;SDS011;3349;49.830;8.748;2022-12-20T02:45:51;45.27;;;28.07;;
6626;SDS011;3349;49.830;8.748;2022-12-20T02:48:18;62.40;;;31.30;;
6626;SDS011;3349;49.830;8.748;2022-12-20T02:50:47;61.70;;;33.67;;
6626;SDS011;3349;49.830;8.748;2022-12-20T02:53:16;59.50;;;33.13;;
6626;SDS011;3349;49.830;8.748;2022-12-20T02:55:45;57.17;;;31.87;;
6626;SDS011;3349;49.830;8.748;2022-12-20T02:58:17;57.87;;;30.33;;
6626;SDS011;3349;49.830;8.748;2022-12-20T03:00:51;57.33;;;30.37;;
6626;SDS011;3349;49.830;8.748;2022-12-20T03:03:19;56.17;;;31.47;;
6626;SDS011;3349;49.830;8.748;2022-12-20T03:05:51;50.80;;;28.83;;
6626;SDS011;3349;49.830;8.748;2022-12-20T03:08:18;55.83;;;30.87;;
6626;SDS011;3349;49.830;8.748;2022-12-20T03:10:46;47.83;;;29.63;;
6626;SDS011;3349;49.830;8.748;2022-12-20T03:13:13;61.70;;;32.97;;
6626;SDS011;3349;49.830;8.748;2022-12-20T03:15:40;53.33;;;32.07;;
6626;SDS011;3349;49.830;8.748;2022-12-20T03:18:08;54.43;;;31.97;;
6626;SDS011;3349;49.830;8.748;2022-12-20T03:20:35;52.33;;;29.33;;
6626;SDS011;3349;49.830;8.748;2022-12-20T03:23:02;55.83;;;31.57;;
6626;SDS011;3349;49.830;8.748;2022-12-20T03:25:32;56.50;;;32.27;;
6626;SDS011;3349;49.830;8.748;2022-12-20T03:27:59;55.60;;;32.20;;
6626;SDS011;3349;49.830;8.748;2022-12-20T03:30:25;54.00;;;30.73;;
6626;SDS011;3349;49.830;8.748;2022-12-20T03:32:52;52.37;;;30.87;;
6626;SDS011;3349;49.830;8.748;2022-12-20T03:35:21;57.30;;;32.53;;
6626;SDS011;3349;49.830;8.748;2022-12-20T03:37:47;55.97;;;32.47;;
6626;SDS011;3349;49.830;8.748;2022-12-20T03:40:14;56.90;;;32.20;;
6626;SDS011;3349;49.830;8.748;2022-12-20T03:42:41;56.13;;;31.67;;
6626;SDS011;3349;49.830;8.748;2022-12-20T03:45:08;57.60;;;32.37;;
6626;SDS011;3349;49.830;8.748;2022-12-20T03:47:35;54.20;;;31.40;;
6626;SDS011;3349;49.830;8.748;2022-12-20T03:50:02;49.70;;;28.80;;
6626;SDS011;3349;49.830;8.748;2022-12-20T03:52:31;48.63;;;28.77;;
6626;SDS011;3349;49.830;8.748;2022-12-20T03:54:58;44.87;;;27.13;;
6626;SDS011;3349;49.830;8.748;2022-12-20T03:57:25;41.97;;;27.37;;
6626;SDS011;3349;49.830;8.748;2022-12-20T03:59:52;41.20;;;26.20;;
6626;SDS011;3349;49.830;8.748;2022-12-20T04:02:19;41.23;;;26.60;;
6626;SDS011;3349;49.830;8.748;2022-12-20T04:04:46;44.53;;;25.83;;
6626;SDS011;3349;49.830;8.748;2022-12-20T04:07:13;43.67;;;27.07;;
6626;SDS011;3349;49.830;8.748;2022-12-20T04:09:41;47.20;;;28.07;;
6626;SDS011;3349;49.830;8.748;2022-12-20T04:12:08;44.73;;;25.73;;
6626;SDS011;3349;49.830;8.748;2022-12-20T04:14:35;45.20;;;26.50;;
6626;SDS011;3349;49.830;8.748;2022-12-20T04:17:02;44.00;;;25.73;;
6626;SDS011;3349;49.830;8.748;2022-12-20T04:19:29;39.40;;;25.17;;
6626;SDS011;3349;49.830;8.748;2022-12-20T04:21:55;34.20;;;21.97;;
6626;SDS011;3349;49.830;8.748;2022-12-20T04:24:22;33.27;;;19.90;;
6626;SDS011;3349;49.830;8.748;2022-12-20T04:26:50;30.93;;;19.70;;
6626;SDS011;3349;49.830;8.748;2022-12-20T04:29:17;30.30;;;18.53;;
6626;SDS011;3349;49.830;8.748;2022-12-20T04:31:44;28.87;;;17.70;;
6626;SDS011;3349;49.830;8.748;2022-12-20T04:34:11;26.83;;;16.57;;
6626;SDS011;3349;49.830;8.748;2022-12-20T04:36:37;25.93;;;16.97;;
6626;SDS011;3349;49.830;8.748;2022-12-20T04:39:04;25.67;;;15.27;;
6626;SDS011;3349;49.830;8.748;2022-12-20T04:41:31;22.73;;;15.07;;
6626;SDS011;3349;49.830;8.748;2022-12-20T04:43:59;21.48;;;14.05;;
6626;SDS011;3349;49.830;8.748;2022-12-20T04:46:25;20.00;;;14.63;;
6626;SDS011;3349;49.830;8.748;2022-12-20T04:48:52;21.13;;;14.10;;
6626;SDS011;3349;49.830;8.748;2022-12-20T04:51:19;21.37;;;14.73;;
6626;SDS011;3349;49.830;8.748;2022-12-20T04:53:46;25.03;;;15.33;;
6626;SDS011;3349;49.830;8.748;2022-12-20T04:56:13;22.60;;;14.57;;
6626;SDS011;3349;49.830;8.748;2022-12-20T04:58:41;21.08;;;14.55;;
6626;SDS011;3349;49.830;8.748;2022-12-20T05:01:09;20.50;;;14.27;;
6626;SDS011;3349;49.830;8.748;2022-12-20T05:03:36;19.87;;;13.73;;
6626;SDS011;3349;49.830;8.748;2022-12-20T05:06:03;21.53;;;14.07;;
6626;SDS011;3349;49.830;8.748;2022-12-20T05:08:30;22.53;;;15.27;;
6626;SDS011;3349;49.830;8.748;2022-12-20T05:10:57;27.43;;;15.93;;
6626;SDS011;3349;49.830;8.748;2022-12-20T05:13:23;22.73;;;15.90;;
6626;SDS011;3349;49.830;8.748;2022-12-20T05:15:50;23.07;;;15.33;;
6626;SDS011;3349;49.830;8.748;2022-12-20T05:18:19;23.38;;;15.40;;
6626;SDS011;3349;49.830;8.748;2022-12-20T05:20:46;22.45;;;14.35;;
6626;SDS011;3349;49.830;8.748;2022-12-20T05:23:33;20.33;;;13.63;;
6626;SDS011;3349;49.830;8.748;2022-12-20T05:26:17;22.50;;;14.35;;
6626;SDS011;3349;49.830;8.748;2022-12-20T05:28:44;20.17;;;14.35;;
6626;SDS011;3349;49.830;8.748;2022-12-20T05:31:10;21.83;;;14.13;;
6626;SDS011;3349;49.830;8.748;2022-12-20T05:33:38;21.27;;;13.85;;
6626;SDS011;3349;49.830;8.748;2022-12-20T05:36:05;24.05;;;15.25;;
6626;SDS011;3349;49.830;8.748;2022-12-20T05:38:33;19.15;;;14.07;;
6626;SDS011;3349;49.830;8.748;2022-12-20T05:41:00;22.52;;;14.27;;
6626;SDS011;3349;49.830;8.748;2022-12-20T05:43:29;24.65;;;15.02;;
6626;SDS011;3349;49.830;8.748;2022-12-20T05:45:56;20.33;;;14.05;;
6626;SDS011;3349;49.830;8.748;2022-12-20T05:48:23;23.00;;;14.70;;
6626;SDS011;3349;49.830;8.748;2022-12-20T05:50:51;18.88;;;14.18;;
6626;SDS011;3349;49.830;8.748;2022-12-20T05:53:18;18.33;;;13.27;;
6626;SDS011;3349;49.830;8.748;2022-12-20T05:55:49;20.35;;;13.63;;
6626;SDS011;3349;49.830;8.748;2022-12-20T05:58:18;20.95;;;13.55;;
6626;SDS011;3349;49.830;8.748;2022-12-20T06:00:44;18.70;;;12.20;;
6626;SDS011;3349;49.830;8.748;2022-12-20T06:03:11;18.20;;;11.95;;
6626;SDS011;3349;49.830;8.748;2022-12-20T06:05:39;16.83;;;12.60;;
6626;SDS011;3349;49.830;8.748;2022-12-20T06:08:08;17.80;;;12.23;;
6626;SDS011;3349;49.830;8.748;2022-12-20T06:10:35;14.80;;;10.18;;
6626;SDS011;3349;49.830;8.748;2022-12-20T06:13:01;16.75;;;11.45;;
6626;SDS011;3349;49.830;8.748;2022-12-20T06:15:29;19.05;;;11.70;;
6626;SDS011;3349;49.830;8.748;2022-12-20T06:17:56;13.23;;;8.13;;
6626;SDS011;3349;49.830;8.748;2022-12-20T06:20:23;9.73;;;6.68;;
6626;SDS011;3349;49.830;8.748;2022-12-20T06:22:50;9.45;;;6.95;;
6626;SDS011;3349;49.830;8.748;2022-12-20T06:25:18;9.65;;;6.97;;
6626;SDS011;3349;49.830;8.748;2022-12-20T06:27:45;7.93;;;5.93;;
6626;SDS011;3349;49.830;8.748;2022-12-20T06:30:12;10.35;;;6.43;;
6626;SDS011;3349;49.830;8.748;2022-12-20T06:32:39;9.43;;;6.28;;
6626;SDS011;3349;49.830;8.748;2022-12-20T06:35:06;8.50;;;6.28;;
6626;SDS011;3349;49.830;8.748;2022-12-20T06:37:33;9.30;;;6.55;;
6626;SDS011;3349;49.830;8.748;2022-12-20T06:40:01;9.65;;;6.90;;
6626;SDS011;3349;49.830;8.748;2022-12-20T06:42:30;10.80;;;7.88;;
6626;SDS011;3349;49.830;8.748;2022-12-20T06:44:57;12.65;;;9.18;;
6626;SDS011;3349;49.830;8.748;2022-12-20T06:47:24;17.27;;;8.90;;
6626;SDS011;3349;49.830;8.748;2022-12-20T06:49:51;13.82;;;9.20;;
6626;SDS011;3349;49.830;8.748;2022-12-20T06:52:18;11.77;;;8.30;;
6626;SDS011;3349;49.830;8.748;2022-12-20T06:54:44;9.43;;;7.68;;
6626;SDS011;3349;49.830;8.748;2022-12-20T06:57:11;8.68;;;6.07;;
6626;SDS011;3349;49.830;8.748;2022-12-20T06:59:39;9.02;;;6.00;;
6626;SDS011;3349;49.830;8.748;2022-12-20T07:02:06;8.07;;;6.18;;
6626;SDS011;3349;49.830;8.748;2022-12-20T07:04:34;7.07;;;5.53;;
6626;SDS011;3349;49.830;8.748;2022-12-20T07:07:01;5.78;;;4.55;;
6626;SDS011;3349;49.830;8.748;2022-12-20T07:09:28;6.57;;;4.68;;
6626;SDS011;3349;49.830;8.748;2022-12-20T07:11:55;6.43;;;4.57;;
6626;SDS011;3349;49.830;8.748;2022-12-20T07:14:22;6.30;;;4.60;;
6626;SDS011;3349;49.830;8.748;2022-12-20T07:16:50;9.15;;;6.00;;
6626;SDS011;3349;49.830;8.748;2022-12-20T07:19:17;6.13;;;4.93;;
6626;SDS011;3349;49.830;8.748;2022-12-20T07:21:46;6.97;;;5.45;;
6626;SDS011;3349;49.830;8.748;2022-12-20T07:24:12;9.05;;;7.15;;
6626;SDS011;3349;49.830;8.748;2022-12-20T07:26:39;10.13;;;7.82;;
6626;SDS011;3349;49.830;8.748;2022-12-20T07:29:06;12.95;;;9.05;;
6626;SDS011;3349;49.830;8.748;2022-12-20T07:31:32;12.38;;;8.75;;
6626;SDS011;3349;49.830;8.748;2022-12-20T07:34:00;13.95;;;9.60;;
6626;SDS011;3349;49.830;8.748;2022-12-20T07:36:27;12.60;;;9.68;;
6626;SDS011;3349;49.830;8.748;2022-12-20T07:38:54;13.02;;;8.93;;
6626;SDS011;3349;49.830;8.748;2022-12-20T07:41:20;13.80;;;9.02;;
6626;SDS011;3349;49.830;8.748;2022-12-20T07:43:49;13.35;;;9.23;;
6626;SDS011;3349;49.830;8.748;2022-12-20T07:46:16;13.45;;;9.93;;
6626;SDS011;3349;49.830;8.748;2022-12-20T07:48:42;17.35;;;11.20;;
6626;SDS011;3349;49.830;8.748;2022-12-20T07:51:12;19.75;;;11.95;;
6626;SDS011;3349;49.830;8.748;2022-12-20T07:53:42;19.48;;;13.15;;
6626;SDS011;3349;49.830;8.748;2022-12-20T07:56:13;17.88;;;11.45;;
6626;SDS011;3349;49.830;8.748;2022-12-20T07:58:41;18.08;;;11.82;;
6626;SDS011;3349;49.830;8.748;2022-12-20T08:01:09;21.02;;;13.95;;
6626;SDS011;3349;49.830;8.748;2022-12-20T08:03:39;18.30;;;13.38;;
6626;SDS011;3349;49.830;8.748;2022-12-20T08:06:09;19.33;;;13.70;;
6626;SDS011;3349;49.830;8.748;2022-12-20T08:08:39;17.15;;;12.75;;
6626;SDS011;3349;49.830;8.748;2022-12-20T08:11:09;21.27;;;13.75;;
6626;SDS011;3349;49.830;8.748;2022-12-20T08:13:36;19.08;;;14.50;;
6626;SDS011;3349;49.830;8.748;2022-12-20T08:16:04;22.05;;;12.90;;
6626;SDS011;3349;49.830;8.748;2022-12-20T08:18:32;19.67;;;13.55;;
6626;SDS011;3349;49.830;8.748;2022-12-20T08:20:58;20.25;;;14.10;;
6626;SDS011;3349;49.830;8.748;2022-12-20T08:23:26;19.67;;;13.85;;
6626;SDS011;3349;49.830;8.748;2022-12-20T08:25:54;20.88;;;14.02;;
6626;SDS011;3349;49.830;8.748;2022-12-20T08:28:21;19.85;;;13.77;;
6626;SDS011;3349;49.830;8.748;2022-12-20T08:30:48;21.50;;;14.05;;
6626;SDS011;3349;49.830;8.748;2022-12-20T08:33:15;22.40;;;14.48;;
6626;SDS011;3349;49.830;8.748;2022-12-20T08:35:42;21.48;;;15.57;;
6626;SDS011;3349;49.830;8.748;2022-12-20T08:38:08;24.88;;;17.63;;
6626;SDS011;3349;49.830;8.748;2022-12-20T08:40:35;30.45;;;19.60;;
6626;SDS011;3349;49.830;8.748;2022-12-20T08:43:03;31.08;;;17.83;;
6626;SDS011;3349;49.830;8.748;2022-12-20T08:45:30;25.50;;;16.40;;
6626;SDS011;3349;49.830;8.748;2022-12-20T08:47:56;27.08;;;15.80;;
6626;SDS011;3349;49.830;8.748;2022-12-20T08:50:23;17.42;;;12.38;;
6626;SDS011;3349;49.830;8.748;2022-12-20T08:52:51;8.55;;;5.50;;
6626;SDS011;3349;49.830;8.748;2022-12-20T08:55:17;8.45;;;5.43;;
6626;SDS011;3349;49.830;8.748;2022-12-20T08:57:44;6.38;;;4.38;;
6626;SDS011;3349;49.830;8.748;2022-12-20T09:00:13;5.65;;;4.40;;
6626;SDS011;3349;49.830;8.748;2022-12-20T09:02:40;6.50;;;3.90;;
6626;SDS011;3349;49.830;8.748;2022-12-20T09:05:07;5.25;;;3.53;;
6626;SDS011;3349;49.830;8.748;2022-12-20T09:07:34;6.28;;;3.33;;
6626;SDS011;3349;49.830;8.748;2022-12-20T09:10:01;5.18;;;2.92;;
6626;SDS011;3349;49.830;8.748;2022-12-20T09:12:27;6.53;;;3.47;;
6626;SDS011;3349;49.830;8.748;2022-12-20T09:14:54;5.85;;;2.83;;
6626;SDS011;3349;49.830;8.748;2022-12-20T09:17:23;5.00;;;2.90;;
6626;SDS011;3349;49.830;8.748;2022-12-20T09:19:49;3.67;;;2.80;;
6626;SDS011;3349;49.830;8.748;2022-12-20T09:22:16;3.67;;;3.28;;
6626;SDS011;3349;49.830;8.748;2022-12-20T09:24:43;4.63;;;3.58;;
6626;SDS011;3349;49.830;8.748;2022-12-20T09:27:09;5.85;;;3.58;;
6626;SDS011;3349;49.830;8.748;2022-12-20T09:29:36;4.72;;;3.78;;
6626;SDS011;3349;49.830;8.748;2022-12-20T09:32:03;5.03;;;3.13;;
6626;SDS011;3349;49.830;8.748;2022-12-20T09:34:31;4.88;;;3.30;;
6626;SDS011;3349;49.830;8.748;2022-12-20T09:36:58;4.80;;;3.20;;
6626;SDS011;3349;49.830;8.748;2022-12-20T09:39:25;4.55;;;3.35;;
6626;SDS011;3349;49.830;8.748;2022-12-20T09:41:51;3.65;;;3.13;;
6626;SDS011;3349;49.830;8.748;2022-12-20T09:44:19;6.07;;;3.75;;
6626;SDS011;3349;49.830;8.748;2022-12-20T09:46:50;4.88;;;4.05;;
6626;SDS011;3349;49.830;8.748;2022-12-20T09:49:19;6.60;;;4.28;;
6626;SDS011;3349;49.830;8.748;2022-12-20T09:51:58;10.48;;;6.82;;
6626;SDS011;3349;49.830;8.748;2022-12-20T09:54:37;10.10;;;6.35;;
6626;SDS011;3349;49.830;8.748;2022-12-20T09:57:13;5.13;;;2.80;;
6626;SDS011;3349;49.830;8.748;2022-12-20T09:59:48;5.50;;;3.15;;
6626;SDS011;3349;49.830;8.748;2022-12-20T10:02:17;6.38;;;3.90;;
6626;SDS011;3349;49.830;8.748;2022-12-20T10:04:47;5.28;;;3.55;;
6626;SDS011;3349;49.830;8.748;2022-12-20T10:07:19;4.85;;;3.42;;
6626;SDS011;3349;49.830;8.748;2022-12-20T10:10:08;10.30;;;5.25;;
6626;SDS011;3349;49.830;8.748;2022-12-20T10:12:53;8.15;;;4.20;;
6626;SDS011;3349;49.830;8.748;2022-12-20T10:15:29;8.00;;;4.30;;
6626;SDS011;3349;49.830;8.748;2022-12-20T10:18:02;3.55;;;2.72;;
6626;SDS011;3349;49.830;8.748;2022-12-20T10:20:47;4.32;;;2.20;;
6626;SDS011;3349;49.830;8.748;2022-12-20T10:23:22;5.22;;;3.55;;
6626;SDS011;3349;49.830;8.748;2022-12-20T10:25:53;3.58;;;2.40;;
6626;SDS011;3349;49.830;8.748;2022-12-20T10:28:24;6.05;;;2.80;;
6626;SDS011;3349;49.830;8.748;2022-12-20T10:30:52;6.70;;;3.45;;
6626;SDS011;3349;49.830;8.748;2022-12-20T10:33:25;5.00;;;3.20;;
6626;SDS011;3349;49.830;8.748;2022-12-20T10:35:53;10.25;;;5.10;;
6626;SDS011;3349;49.830;8.748;2022-12-20T10:38:19;22.13;;;10.20;;
6626;SDS011;3349;49.830;8.748;2022-12-20T10:40:57;9.73;;;6.07;;
6626;SDS011;3349;49.830;8.748;2022-12-20T10:43:26;5.95;;;4.00;;
6626;SDS011;3349;49.830;8.748;2022-12-20T10:46:02;3.25;;;2.72;;
6626;SDS011;3349;49.830;8.748;2022-12-20T10:48:32;5.97;;;2.88;;
6626;SDS011;3349;49.830;8.748;2022-12-20T10:51:01;3.20;;;2.38;;
6626;SDS011;3349;49.830;8.748;2022-12-20T10:53:31;4.80;;;2.10;;
6626;SDS011;3349;49.830;8.748;2022-12-20T10:58:50;4.78;;;2.33;;
6626;SDS011;3349;49.830;8.748;2022-12-20T11:01:18;4.03;;;2.22;;
6626;SDS011;3349;49.830;8.748;2022-12-20T11:03:51;3.33;;;2.00;;
6626;SDS011;3349;49.830;8.748;2022-12-20T11:06:21;7.25;;;3.58;;
6626;SDS011;3349;49.830;8.748;2022-12-20T11:08:50;3.90;;;2.42;;
6626;SDS011;3349;49.830;8.748;2022-12-20T11:11:18;4.90;;;2.80;;
6626;SDS011;3349;49.830;8.748;2022-12-20T11:13:49;2.88;;;2.20;;
6626;SDS011;3349;49.830;8.748;2022-12-20T11:16:22;5.22;;;2.10;;
6626;SDS011;3349;49.830;8.748;2022-12-20T11:18:54;2.58;;;1.80;;
6626;SDS011;3349;49.830;8.748;2022-12-20T11:21:29;5.70;;;3.33;;
6626;SDS011;3349;49.830;8.748;2022-12-20T11:24:07;4.53;;;3.17;;
6626;SDS011;3349;49.830;8.748;2022-12-20T11:29:33;4.55;;;2.42;;
6626;SDS011;3349;49.830;8.748;2022-12-20T11:32:13;4.70;;;2.78;;
6626;SDS011;3349;49.830;8.748;2022-12-20T11:34:53;2.38;;;1.90;;
6626;SDS011;3349;49.830;8.748;2022-12-20T11:37:30;2.67;;;2.10;;
6626;SDS011;3349;49.830;8.748;2022-12-20T11:42:59;4.97;;;2.17;;
6626;SDS011;3349;49.830;8.748;2022-12-20T11:45:38;3.65;;;2.17;;
6626;SDS011;3349;49.830;8.748;2022-12-20T11:48:15;4.88;;;2.08;;
6626;SDS011;3349;49.830;8.748;2022-12-20T11:50:57;3.38;;;2.50;;
6626;SDS011;3349;49.830;8.748;2022-12-20T11:53:30;4.85;;;2.03;;
6626;SDS011;3349;49.830;8.748;2022-12-20T11:56:04;4.80;;;2.30;;
6626;SDS011;3349;49.830;8.748;2022-12-20T11:58:43;4.75;;;2.85;;
6626;SDS011;3349;49.830;8.748;2022-12-20T12:01:14;4.75;;;2.80;;
6626;SDS011;3349;49.830;8.748;2022-12-20T12:03:45;10.27;;;4.20;;
6626;SDS011;3349;49.830;8.748;2022-12-20T12:06:23;6.88;;;4.07;;
6626;SDS011;3349;49.830;8.748;2022-12-20T12:08:56;3.92;;;2.70;;
6626;SDS011;3349;49.830;8.748;2022-12-20T12:11:33;3.10;;;2.20;;
6626;SDS011;3349;49.830;8.748;2022-12-20T12:14:03;4.47;;;2.83;;
6626;SDS011;3349;49.830;8.748;2022-12-20T12:16:32;6.20;;;1.83;;
6626;SDS011;3349;49.830;8.748;2022-12-20T12:19:02;2.72;;;2.10;;
6626;SDS011;3349;49.830;8.748;2022-12-20T12:21:34;2.38;;;2.17;;
6626;SDS011;3349;49.830;8.748;2022-12-20T12:24:06;2.50;;;2.00;;
6626;SDS011;3349;49.830;8.748;2022-12-20T12:26:44;4.10;;;2.58;;
6626;SDS011;3349;49.830;8.748;2022-12-20T12:29:11;2.75;;;2.08;;
6626;SDS011;3349;49.830;8.748;2022-12-20T12:31:41;4.03;;;2.28;;
6626;SDS011;3349;49.830;8.748;2022-12-20T12:34:14;3.33;;;2.20;;
6626;SDS011;3349;49.830;8.748;2022-12-20T12:37:00;3.92;;;2.30;;
6626;SDS011;3349;49.830;8.748;2022-12-20T12:45:47;6.72;;;3.30;;
6626;SDS011;3349;49.830;8.748;2022-12-20T12:48:16;3.22;;;2.50;;
6626;SDS011;3349;49.830;8.748;2022-12-20T12:50:48;3.92;;;2.08;;
6626;SDS011;3349;49.830;8.748;2022-12-20T12:53:18;2.83;;;2.50;;
6626;SDS011;3349;49.830;8.748;2022-12-20T12:55:49;3.00;;;2.42;;
6626;SDS011;3349;49.830;8.748;2022-12-20T13:01:07;6.03;;;2.80;;
6626;SDS011;3349;49.830;8.748;2022-12-20T13:03:40;3.70;;;2.40;;
6626;SDS011;3349;49.830;8.748;2022-12-20T13:09:09;5.65;;;2.25;;
6626;SDS011;3349;49.830;8.748;2022-12-20T13:11:45;4.50;;;2.80;;
6626;SDS011;3349;49.830;8.748;2022-12-20T13:20:14;4.57;;;2.40;;
6626;SDS011;3349;49.830;8.748;2022-12-20T13:25:39;5.75;;;3.85;;
6626;SDS011;3349;49.830;8.748;2022-12-20T13:33:59;4.57;;;3.15;;
6626;SDS011;3349;49.830;8.748;2022-12-20T13:36:33;3.58;;;3.15;;
6626;SDS011;3349;49.830;8.748;2022-12-20T13:42:06;3.85;;;2.45;;
6626;SDS011;3349;49.830;8.748;2022-12-20T13:44:55;3.42;;;2.55;;
6626;SDS011;3349;49.830;8.748;2022-12-20T13:47:27;4.80;;;2.63;;
6626;SDS011;3349;49.830;8.748;2022-12-20T13:50:26;3.33;;;2.70;;
6626;SDS011;3349;49.830;8.748;2022-12-20T13:52:59;4.40;;;2.55;;
6626;SDS011;3349;49.830;8.748;2022-12-20T13:55:31;3.78;;;3.00;;
6626;SDS011;3349;49.830;8.748;2022-12-20T13:58:09;3.33;;;2.50;;
6626;SDS011;3349;49.830;8.748;2022-12-20T14:00:39;3.80;;;2.55;;
6626;SDS011;3349;49.830;8.748;2022-12-20T14:03:12;4.43;;;2.88;;
6626;SDS011;3349;49.830;8.748;2022-12-20T14:05:49;3.72;;;2.55;;
6626;SDS011;3349;49.830;8.748;2022-12-20T14:08:22;2.88;;;2.35;;
6626;SDS011;3349;49.830;8.748;2022-12-20T14:10:53;3.33;;;2.38;;
6626;SDS011;3349;49.830;8.748;2022-12-20T14:13:21;3.60;;;2.42;;
6626;SDS011;3349;49.830;8.748;2022-12-20T14:15:49;4.15;;;2.75;;
6626;SDS011;3349;49.830;8.748;2022-12-20T14:18:18;3.45;;;2.38;;
6626;SDS011;3349;49.830;8.748;2022-12-20T14:20:47;3.90;;;2.83;;
6626;SDS011;3349;49.830;8.748;2022-12-20T14:23:16;5.63;;;2.40;;
6626;SDS011;3349;49.830;8.748;2022-12-20T14:25:47;4.07;;;2.50;;
6626;SDS011;3349;49.830;8.748;2022-12-20T14:28:26;4.10;;;2.63;;
6626;SDS011;3349;49.830;8.748;2022-12-20T14:30:55;3.22;;;2.47;;
6626;SDS011;3349;49.830;8.748;2022-12-20T14:33:26;3.92;;;2.17;;
6626;SDS011;3349;49.830;8.748;2022-12-20T14:35:55;6.40;;;3.60;;
6626;SDS011;3349;49.830;8.748;2022-12-20T14:38:29;5.07;;;3.95;;
6626;SDS011;3349;49.830;8.748;2022-12-20T14:40:56;4.47;;;3.00;;
6626;SDS011;3349;49.830;8.748;2022-12-20T14:43:25;5.65;;;3.95;;
6626;SDS011;3349;49.830;8.748;2022-12-20T14:46:07;8.63;;;4.20;;
6626;SDS011;3349;49.830;8.748;2022-12-20T14:48:41;10.05;;;5.30;;
6626;SDS011;3349;49.830;8.748;2022-12-20T14:51:08;10.20;;;5.15;;
6626;SDS011;3349;49.830;8.748;2022-12-20T14:53:35;9.00;;;4.43;;
6626;SDS011;3349;49.830;8.748;2022-12-20T14:56:04;9.27;;;4.85;;
6626;SDS011;3349;49.830;8.748;2022-12-20T14:58:38;6.57;;;3.90;;
6626;SDS011;3349;49.830;8.748;2022-12-20T15:01:16;6.25;;;4.00;;
6626;SDS011;3349;49.830;8.748;2022-12-20T15:03:49;5.38;;;3.72;;
6626;SDS011;3349;49.830;8.748;2022-12-20T15:06:29;7.65;;;4.07;;
6626;SDS011;3349;49.830;8.748;2022-12-20T15:08:58;7.43;;;3.97;;
6626;SDS011;3349;49.830;8.748;2022-12-20T15:11:24;5.22;;;3.55;;
6626;SDS011;3349;49.830;8.748;2022-12-20T15:13:52;4.38;;;3.40;;
6626;SDS011;3349;49.830;8.748;2022-12-20T15:16:21;8.35;;;3.60;;
6626;SDS011;3349;49.830;8.748;2022-12-20T15:18:51;7.05;;;3.28;;
6626;SDS011;3349;49.830;8.748;2022-12-20T15:21:22;5.20;;;3.95;;
6626;SDS011;3349;49.830;8.748;2022-12-20T15:23:54;5.65;;;3.60;;
6626;SDS011;3349;49.830;8.748;2022-12-20T15:26:22;4.65;;;3.40;;
6626;SDS011;3349;49.830;8.748;2022-12-20T15:28:51;6.53;;;3.85;;
6626;SDS011;3349;49.830;8.748;2022-12-20T15:31:19;4.38;;;3.25;;
6626;SDS011;3349;49.830;8.748;2022-12-20T15:33:48;4.43;;;2.85;;
6626;SDS011;3349;49.830;8.748;2022-12-20T15:36:17;3.47;;;2.58;;
6626;SDS011;3349;49.830;8.748;2022-12-20T15:38:45;7.15;;;2.90;;
6626;SDS011;3349;49.830;8.748;2022-12-20T15:41:13;3.00;;;2.38;;
6626;SDS011;3349;49.830;8.748;2022-12-20T15:43:44;5.05;;;3.10;;
6626;SDS011;3349;49.830;8.748;2022-12-20T15:46:11;3.90;;;2.40;;
6626;SDS011;3349;49.830;8.748;2022-12-20T15:48:38;3.40;;;2.50;;
6626;SDS011;3349;49.830;8.748;2022-12-20T15:51:10;4.05;;;2.85;;
6626;SDS011;3349;49.830;8.748;2022-12-20T15:53:42;9.18;;;4.43;;